sensor_id;sensor_type;location;lat;lon;timestamp;P1;durP1;ratioP1;P2;durP2;ratioP2
67715;SDS011;54508;43.238;25.306;2023-08-20T00:01:43;1.40;;;1.30;;
67715;SDS011;54508;43.238;25.306;2023-08-20T00:04:09;1.50;;;1.40;;
67715;SDS011;54508;43.238;25.306;2023-08-20T00:06:35;1.67;;;1.48;;
67715;SDS011;54508;43.238;25.306;2023-08-20T00:09:00;1.60;;;1.50;;
67715;SDS011;54508;43.238;25.306;2023-08-20T00:11:26;1.47;;;1.23;;
67715;SDS011;54508;43.238;25.306;2023-08-20T00:13:52;1.67;;;1.58;;
67715;SDS011;54508;43.238;25.306;2023-08-20T00:16:17;2.05;;;1.60;;
67715;SDS011;54508;43.238;25.306;2023-08-20T00:18:43;1.70;;;1.60;;
67715;SDS011;54508;43.238;25.306;2023-08-20T00:21:09;1.88;;;1.67;;
67715;SDS011;54508;43.238;25.306;2023-08-20T00:23:35;1.67;;;1.57;;
67715;SDS011;54508;43.238;25.306;2023-08-20T00:26:01;1.60;;;1.50;;
67715;SDS011;54508;43.238;25.306;2023-08-20T00:28:27;1.92;;;1.65;;
67715;SDS011;54508;43.238;25.306;2023-08-20T00:30:52;1.70;;;1.60;;
67715;SDS011;54508;43.238;25.306;2023-08-20T00:33:18;2.00;;;1.80;;
67715;SDS011;54508;43.238;25.306;2023-08-20T00:35:43;1.95;;;1.75;;
67715;SDS011;54508;43.238;25.306;2023-08-20T00:38:09;1.97;;;1.60;;
67715;SDS011;54508;43.238;25.306;2023-08-20T00:40:34;1.80;;;1.60;;
67715;SDS011;54508;43.238;25.306;2023-08-20T00:43:00;1.80;;;1.70;;
67715;SDS011;54508;43.238;25.306;2023-08-20T00:45:26;1.63;;;1.53;;
67715;SDS011;54508;43.238;25.306;2023-08-20T00:47:51;1.60;;;1.50;;
67715;SDS011;54508;43.238;25.306;2023-08-20T00:50:17;1.80;;;1.60;;
67715;SDS011;54508;43.238;25.306;2023-08-20T00:52:43;1.75;;;1.60;;
67715;SDS011;54508;43.238;25.306;2023-08-20T00:55:10;2.13;;;1.88;;
67715;SDS011;54508;43.238;25.306;2023-08-20T00:57:38;2.15;;;1.80;;
67715;SDS011;54508;43.238;25.306;2023-08-20T01:00:04;1.73;;;1.63;;
67715;SDS011;54508;43.238;25.306;2023-08-20T01:02:32;2.00;;;1.73;;
67715;SDS011;54508;43.238;25.306;2023-08-20T01:04:59;2.03;;;1.85;;
67715;SDS011;54508;43.238;25.306;2023-08-20T01:07:47;2.75;;;1.70;;
67715;SDS011;54508;43.238;25.306;2023-08-20T01:13:29;1.85;;;1.65;;
67715;SDS011;54508;43.238;25.306;2023-08-20T01:15:54;2.05;;;1.83;;
67715;SDS011;54508;43.238;25.306;2023-08-20T01:18:19;2.00;;;1.83;;
67715;SDS011;54508;43.238;25.306;2023-08-20T01:20:47;1.87;;;1.70;;
67715;SDS011;54508;43.238;25.306;2023-08-20T01:23:24;2.03;;;1.70;;
67715;SDS011;54508;43.238;25.306;2023-08-20T01:26:07;1.80;;;1.70;;
67715;SDS011;54508;43.238;25.306;2023-08-20T01:28:53;2.10;;;1.90;;
67715;SDS011;54508;43.238;25.306;2023-08-20T01:31:19;2.90;;;2.00;;
67715;SDS011;54508;43.238;25.306;2023-08-20T01:33:45;2.10;;;1.90;;
67715;SDS011;54508;43.238;25.306;2023-08-20T01:36:10;2.23;;;1.60;;
67715;SDS011;54508;43.238;25.306;2023-08-20T01:38:36;1.97;;;1.87;;
67715;SDS011;54508;43.238;25.306;2023-08-20T01:41:03;2.25;;;1.80;;
67715;SDS011;54508;43.238;25.306;2023-08-20T01:43:28;1.85;;;1.70;;
67715;SDS011;54508;43.238;25.306;2023-08-20T01:45:54;2.03;;;1.83;;
67715;SDS011;54508;43.238;25.306;2023-08-20T01:48:19;1.90;;;1.70;;
67715;SDS011;54508;43.238;25.306;2023-08-20T01:50:45;1.85;;;1.75;;
67715;SDS011;54508;43.238;25.306;2023-08-20T01:53:11;3.03;;;1.67;;
67715;SDS011;54508;43.238;25.306;2023-08-20T01:55:36;1.58;;;1.48;;
67715;SDS011;54508;43.238;25.306;2023-08-20T01:58:02;2.33;;;1.70;;
67715;SDS011;54508;43.238;25.306;2023-08-20T02:00:28;1.65;;;1.55;;
67715;SDS011;54508;43.238;25.306;2023-08-20T02:02:53;1.83;;;1.60;;
67715;SDS011;54508;43.238;25.306;2023-08-20T02:05:19;1.90;;;1.70;;
67715;SDS011;54508;43.238;25.306;2023-08-20T02:07:45;1.98;;;1.50;;
67715;SDS011;54508;43.238;25.306;2023-08-20T02:10:10;2.20;;;1.70;;
67715;SDS011;54508;43.238;25.306;2023-08-20T02:12:36;1.73;;;1.63;;
67715;SDS011;54508;43.238;25.306;2023-08-20T02:15:01;1.85;;;1.65;;
67715;SDS011;54508;43.238;25.306;2023-08-20T02:17:28;2.60;;;1.70;;
67715;SDS011;54508;43.238;25.306;2023-08-20T02:19:54;1.80;;;1.70;;
67715;SDS011;54508;43.238;25.306;2023-08-20T02:22:19;2.47;;;1.80;;
67715;SDS011;54508;43.238;25.306;2023-08-20T02:24:46;2.05;;;1.85;;
67715;SDS011;54508;43.238;25.306;2023-08-20T02:27:11;2.03;;;1.80;;
67715;SDS011;54508;43.238;25.306;2023-08-20T02:29:37;2.10;;;1.90;;
67715;SDS011;54508;43.238;25.306;2023-08-20T02:32:02;1.52;;;1.42;;
67715;SDS011;54508;43.238;25.306;2023-08-20T02:34:27;2.03;;;1.53;;
67715;SDS011;54508;43.238;25.306;2023-08-20T02:36:53;1.70;;;1.60;;
67715;SDS011;54508;43.238;25.306;2023-08-20T02:39:19;1.60;;;1.50;;
67715;SDS011;54508;43.238;25.306;2023-08-20T02:41:45;2.10;;;1.90;;
67715;SDS011;54508;43.238;25.306;2023-08-20T02:44:10;2.00;;;1.80;;
67715;SDS011;54508;43.238;25.306;2023-08-20T02:46:36;1.65;;;1.55;;
67715;SDS011;54508;43.238;25.306;2023-08-20T02:49:03;2.83;;;1.90;;
67715;SDS011;54508;43.238;25.306;2023-08-20T02:51:28;2.13;;;1.90;;
67715;SDS011;54508;43.238;25.306;2023-08-20T02:53:54;2.43;;;2.13;;
67715;SDS011;54508;43.238;25.306;2023-08-20T02:56:19;1.93;;;1.73;;
67715;SDS011;54508;43.238;25.306;2023-08-20T02:58:45;2.70;;;1.47;;
67715;SDS011;54508;43.238;25.306;2023-08-20T03:01:23;2.17;;;1.80;;
67715;SDS011;54508;43.238;25.306;2023-08-20T03:03:50;2.00;;;1.80;;
67715;SDS011;54508;43.238;25.306;2023-08-20T03:06:16;1.60;;;1.47;;
67715;SDS011;54508;43.238;25.306;2023-08-20T03:08:41;2.10;;;1.80;;
67715;SDS011;54508;43.238;25.306;2023-08-20T03:11:07;1.92;;;1.83;;
67715;SDS011;54508;43.238;25.306;2023-08-20T03:13:32;1.70;;;1.50;;
67715;SDS011;54508;43.238;25.306;2023-08-20T03:15:58;2.10;;;1.90;;
67715;SDS011;54508;43.238;25.306;2023-08-20T03:18:23;1.75;;;1.65;;
67715;SDS011;54508;43.238;25.306;2023-08-20T03:20:49;2.03;;;1.83;;
67715;SDS011;54508;43.238;25.306;2023-08-20T03:23:14;1.77;;;1.40;;
67715;SDS011;54508;43.238;25.306;2023-08-20T03:25:39;1.77;;;1.67;;
67715;SDS011;54508;43.238;25.306;2023-08-20T03:28:05;2.23;;;1.30;;
67715;SDS011;54508;43.238;25.306;2023-08-20T03:30:30;1.95;;;1.60;;
67715;SDS011;54508;43.238;25.306;2023-08-20T03:32:56;2.08;;;1.88;;
67715;SDS011;54508;43.238;25.306;2023-08-20T03:35:22;2.25;;;2.05;;
67715;SDS011;54508;43.238;25.306;2023-08-20T03:37:48;1.80;;;1.70;;
67715;SDS011;54508;43.238;25.306;2023-08-20T03:40:13;1.93;;;1.80;;
67715;SDS011;54508;43.238;25.306;2023-08-20T03:42:39;2.15;;;1.95;;
67715;SDS011;54508;43.238;25.306;2023-08-20T03:45:05;2.10;;;1.90;;
67715;SDS011;54508;43.238;25.306;2023-08-20T03:47:31;2.00;;;1.80;;
67715;SDS011;54508;43.238;25.306;2023-08-20T03:49:56;2.10;;;1.80;;
67715;SDS011;54508;43.238;25.306;2023-08-20T03:52:22;1.98;;;1.58;;
67715;SDS011;54508;43.238;25.306;2023-08-20T03:54:47;1.87;;;1.50;;
67715;SDS011;54508;43.238;25.306;2023-08-20T03:57:13;2.37;;;2.13;;
67715;SDS011;54508;43.238;25.306;2023-08-20T03:59:38;2.47;;;2.28;;
67715;SDS011;54508;43.238;25.306;2023-08-20T04:02:04;2.50;;;1.73;;
67715;SDS011;54508;43.238;25.306;2023-08-20T04:04:29;2.10;;;1.90;;
67715;SDS011;54508;43.238;25.306;2023-08-20T04:06:54;2.10;;;1.90;;
67715;SDS011;54508;43.238;25.306;2023-08-20T04:09:20;2.10;;;1.90;;
67715;SDS011;54508;43.238;25.306;2023-08-20T04:11:45;2.07;;;1.60;;
67715;SDS011;54508;43.238;25.306;2023-08-20T04:14:11;1.83;;;1.67;;
67715;SDS011;54508;43.238;25.306;2023-08-20T04:16:36;2.50;;;2.00;;
67715;SDS011;54508;43.238;25.306;2023-08-20T04:19:01;1.67;;;1.57;;
67715;SDS011;54508;43.238;25.306;2023-08-20T04:21:27;2.15;;;1.90;;
67715;SDS011;54508;43.238;25.306;2023-08-20T04:23:53;2.10;;;1.90;;
67715;SDS011;54508;43.238;25.306;2023-08-20T04:26:19;1.73;;;1.63;;
67715;SDS011;54508;43.238;25.306;2023-08-20T04:28:44;2.27;;;1.87;;
67715;SDS011;54508;43.238;25.306;2023-08-20T04:31:09;3.73;;;1.73;;
67715;SDS011;54508;43.238;25.306;2023-08-20T04:33:35;2.07;;;1.87;;
67715;SDS011;54508;43.238;25.306;2023-08-20T04:36:00;2.15;;;1.80;;
67715;SDS011;54508;43.238;25.306;2023-08-20T04:38:26;2.30;;;1.83;;
67715;SDS011;54508;43.238;25.306;2023-08-20T04:40:51;2.23;;;2.03;;
67715;SDS011;54508;43.238;25.306;2023-08-20T04:43:17;2.30;;;2.00;;
67715;SDS011;54508;43.238;25.306;2023-08-20T04:45:42;2.07;;;1.87;;
67715;SDS011;54508;43.238;25.306;2023-08-20T04:48:08;2.05;;;1.73;;
67715;SDS011;54508;43.238;25.306;2023-08-20T04:50:33;1.97;;;1.77;;
67715;SDS011;54508;43.238;25.306;2023-08-20T04:52:59;1.83;;;1.67;;
67715;SDS011;54508;43.238;25.306;2023-08-20T04:55:25;2.30;;;2.10;;
67715;SDS011;54508;43.238;25.306;2023-08-20T04:57:51;2.15;;;1.85;;
67715;SDS011;54508;43.238;25.306;2023-08-20T05:00:16;3.10;;;1.80;;
67715;SDS011;54508;43.238;25.306;2023-08-20T05:02:42;1.60;;;1.47;;
67715;SDS011;54508;43.238;25.306;2023-08-20T05:05:07;2.42;;;1.60;;
67715;SDS011;54508;43.238;25.306;2023-08-20T05:07:33;1.83;;;1.57;;
67715;SDS011;54508;43.238;25.306;2023-08-20T05:09:58;1.67;;;1.40;;
67715;SDS011;54508;43.238;25.306;2023-08-20T05:12:24;1.90;;;1.80;;
67715;SDS011;54508;43.238;25.306;2023-08-20T05:14:49;1.58;;;1.48;;
67715;SDS011;54508;43.238;25.306;2023-08-20T05:17:15;2.00;;;1.67;;
67715;SDS011;54508;43.238;25.306;2023-08-20T05:19:40;1.70;;;1.50;;
67715;SDS011;54508;43.238;25.306;2023-08-20T05:22:06;2.13;;;1.65;;
67715;SDS011;54508;43.238;25.306;2023-08-20T05:24:31;2.80;;;1.47;;
67715;SDS011;54508;43.238;25.306;2023-08-20T05:27:09;2.47;;;1.40;;
67715;SDS011;54508;43.238;25.306;2023-08-20T05:29:39;1.60;;;1.50;;
67715;SDS011;54508;43.238;25.306;2023-08-20T05:32:05;1.80;;;1.53;;
67715;SDS011;54508;43.238;25.306;2023-08-20T05:34:31;1.50;;;1.40;;
67715;SDS011;54508;43.238;25.306;2023-08-20T05:36:56;1.40;;;1.30;;
67715;SDS011;54508;43.238;25.306;2023-08-20T05:39:21;1.50;;;1.40;;
67715;SDS011;54508;43.238;25.306;2023-08-20T05:41:48;1.70;;;1.60;;
67715;SDS011;54508;43.238;25.306;2023-08-20T05:44:14;2.80;;;2.50;;
67715;SDS011;54508;43.238;25.306;2023-08-20T05:46:39;2.30;;;2.10;;
67715;SDS011;54508;43.238;25.306;2023-08-20T05:49:06;2.72;;;2.42;;
67715;SDS011;54508;43.238;25.306;2023-08-20T05:51:31;2.72;;;2.50;;
67715;SDS011;54508;43.238;25.306;2023-08-20T05:53:57;2.97;;;2.67;;
67715;SDS011;54508;43.238;25.306;2023-08-20T05:56:22;2.37;;;2.17;;
67715;SDS011;54508;43.238;25.306;2023-08-20T05:58:47;2.50;;;2.30;;
67715;SDS011;54508;43.238;25.306;2023-08-20T06:01:13;2.28;;;2.08;;
67715;SDS011;54508;43.238;25.306;2023-08-20T06:03:38;2.53;;;1.97;;
67715;SDS011;54508;43.238;25.306;2023-08-20T06:06:04;2.80;;;2.20;;
67715;SDS011;54508;43.238;25.306;2023-08-20T06:08:29;2.30;;;2.10;;
67715;SDS011;54508;43.238;25.306;2023-08-20T06:10:55;2.17;;;1.98;;
67715;SDS011;54508;43.238;25.306;2023-08-20T06:13:22;1.90;;;1.80;;
67715;SDS011;54508;43.238;25.306;2023-08-20T06:15:48;1.67;;;1.58;;
67715;SDS011;54508;43.238;25.306;2023-08-20T06:18:13;1.80;;;1.70;;
67715;SDS011;54508;43.238;25.306;2023-08-20T06:20:39;2.83;;;1.90;;
67715;SDS011;54508;43.238;25.306;2023-08-20T06:23:04;2.40;;;2.00;;
67715;SDS011;54508;43.238;25.306;2023-08-20T06:25:29;1.80;;;1.67;;
67715;SDS011;54508;43.238;25.306;2023-08-20T06:27:55;1.90;;;1.60;;
67715;SDS011;54508;43.238;25.306;2023-08-20T06:30:20;2.13;;;1.53;;
67715;SDS011;54508;43.238;25.306;2023-08-20T06:32:46;2.10;;;1.73;;
67715;SDS011;54508;43.238;25.306;2023-08-20T06:35:11;1.77;;;1.67;;
67715;SDS011;54508;43.238;25.306;2023-08-20T06:37:38;1.65;;;1.50;;
67715;SDS011;54508;43.238;25.306;2023-08-20T06:40:05;1.75;;;1.65;;
67715;SDS011;54508;43.238;25.306;2023-08-20T06:42:31;2.80;;;1.60;;
67715;SDS011;54508;43.238;25.306;2023-08-20T06:44:57;1.98;;;1.60;;
67715;SDS011;54508;43.238;25.306;2023-08-20T06:47:22;1.70;;;1.60;;
67715;SDS011;54508;43.238;25.306;2023-08-20T06:49:49;1.87;;;1.77;;
67715;SDS011;54508;43.238;25.306;2023-08-20T06:52:15;1.60;;;1.42;;
67715;SDS011;54508;43.238;25.306;2023-08-20T06:54:40;1.83;;;1.57;;
67715;SDS011;54508;43.238;25.306;2023-08-20T06:57:06;1.70;;;1.60;;
67715;SDS011;54508;43.238;25.306;2023-08-20T06:59:31;2.27;;;1.77;;
67715;SDS011;54508;43.238;25.306;2023-08-20T07:01:57;1.38;;;1.20;;
67715;SDS011;54508;43.238;25.306;2023-08-20T07:04:22;1.50;;;1.20;;
67715;SDS011;54508;43.238;25.306;2023-08-20T07:06:47;1.30;;;1.20;;
67715;SDS011;54508;43.238;25.306;2023-08-20T07:09:13;1.87;;;1.27;;
67715;SDS011;54508;43.238;25.306;2023-08-20T07:11:38;1.40;;;1.30;;
67715;SDS011;54508;43.238;25.306;2023-08-20T07:14:04;1.50;;;1.30;;
67715;SDS011;54508;43.238;25.306;2023-08-20T07:16:29;1.20;;;1.10;;
67715;SDS011;54508;43.238;25.306;2023-08-20T07:18:55;1.57;;;1.47;;
67715;SDS011;54508;43.238;25.306;2023-08-20T07:21:20;1.10;;;1.00;;
67715;SDS011;54508;43.238;25.306;2023-08-20T07:23:45;1.60;;;1.40;;
67715;SDS011;54508;43.238;25.306;2023-08-20T07:26:11;1.38;;;1.20;;
67715;SDS011;54508;43.238;25.306;2023-08-20T07:28:40;1.30;;;1.00;;
67715;SDS011;54508;43.238;25.306;2023-08-20T07:31:21;2.58;;;1.40;;
67715;SDS011;54508;43.238;25.306;2023-08-20T07:33:48;2.05;;;1.38;;
67715;SDS011;54508;43.238;25.306;2023-08-20T07:36:14;1.42;;;1.30;;
67715;SDS011;54508;43.238;25.306;2023-08-20T07:38:40;1.40;;;1.30;;
67715;SDS011;54508;43.238;25.306;2023-08-20T07:41:07;1.20;;;1.10;;
67715;SDS011;54508;43.238;25.306;2023-08-20T07:43:38;1.52;;;1.20;;
67715;SDS011;54508;43.238;25.306;2023-08-20T07:46:04;1.70;;;1.40;;
67715;SDS011;54508;43.238;25.306;2023-08-20T07:48:30;2.70;;;1.10;;
67715;SDS011;54508;43.238;25.306;2023-08-20T07:50:56;1.70;;;1.50;;
67715;SDS011;54508;43.238;25.306;2023-08-20T07:53:21;3.10;;;1.20;;
67715;SDS011;54508;43.238;25.306;2023-08-20T07:55:47;1.30;;;1.20;;
67715;SDS011;54508;43.238;25.306;2023-08-20T07:58:12;1.20;;;1.10;;
67715;SDS011;54508;43.238;25.306;2023-08-20T08:00:38;1.33;;;1.23;;
67715;SDS011;54508;43.238;25.306;2023-08-20T08:03:03;1.80;;;1.30;;
67715;SDS011;54508;43.238;25.306;2023-08-20T08:05:29;1.43;;;1.07;;
67715;SDS011;54508;43.238;25.306;2023-08-20T08:07:54;1.50;;;1.20;;
67715;SDS011;54508;43.238;25.306;2023-08-20T08:10:20;1.30;;;1.20;;
67715;SDS011;54508;43.238;25.306;2023-08-20T08:12:45;1.70;;;1.20;;
67715;SDS011;54508;43.238;25.306;2023-08-20T08:15:11;1.40;;;1.17;;
67715;SDS011;54508;43.238;25.306;2023-08-20T08:17:37;1.77;;;1.33;;
67715;SDS011;54508;43.238;25.306;2023-08-20T08:20:02;1.80;;;1.33;;
67715;SDS011;54508;43.238;25.306;2023-08-20T08:22:28;2.13;;;1.10;;
67715;SDS011;54508;43.238;25.306;2023-08-20T08:24:53;1.30;;;1.20;;
67715;SDS011;54508;43.238;25.306;2023-08-20T08:27:19;1.43;;;1.33;;
67715;SDS011;54508;43.238;25.306;2023-08-20T08:29:44;1.75;;;1.30;;
67715;SDS011;54508;43.238;25.306;2023-08-20T08:32:10;1.50;;;1.37;;
67715;SDS011;54508;43.238;25.306;2023-08-20T08:34:35;1.33;;;1.23;;
67715;SDS011;54508;43.238;25.306;2023-08-20T08:37:01;1.45;;;1.35;;
67715;SDS011;54508;43.238;25.306;2023-08-20T08:39:26;1.37;;;1.27;;
67715;SDS011;54508;43.238;25.306;2023-08-20T08:41:53;2.30;;;1.67;;
67715;SDS011;54508;43.238;25.306;2023-08-20T08:44:22;1.60;;;1.50;;
67715;SDS011;54508;43.238;25.306;2023-08-20T08:46:48;1.90;;;1.70;;
67715;SDS011;54508;43.238;25.306;2023-08-20T08:49:15;1.48;;;1.38;;
67715;SDS011;54508;43.238;25.306;2023-08-20T08:51:41;1.48;;;1.35;;
67715;SDS011;54508;43.238;25.306;2023-08-20T08:54:07;1.83;;;1.40;;
67715;SDS011;54508;43.238;25.306;2023-08-20T08:56:34;1.58;;;1.40;;
67715;SDS011;54508;43.238;25.306;2023-08-20T08:58:59;1.65;;;1.35;;
67715;SDS011;54508;43.238;25.306;2023-08-20T09:01:24;1.50;;;1.40;;
67715;SDS011;54508;43.238;25.306;2023-08-20T09:03:50;1.40;;;1.30;;
67715;SDS011;54508;43.238;25.306;2023-08-20T09:06:15;1.50;;;1.40;;
67715;SDS011;54508;43.238;25.306;2023-08-20T09:08:41;1.60;;;1.50;;
67715;SDS011;54508;43.238;25.306;2023-08-20T09:11:06;1.60;;;1.50;;
67715;SDS011;54508;43.238;25.306;2023-08-20T09:13:32;1.30;;;1.20;;
67715;SDS011;54508;43.238;25.306;2023-08-20T09:15:59;1.60;;;1.50;;
67715;SDS011;54508;43.238;25.306;2023-08-20T09:18:25;1.50;;;1.40;;
67715;SDS011;54508;43.238;25.306;2023-08-20T09:20:50;2.27;;;1.60;;
67715;SDS011;54508;43.238;25.306;2023-08-20T09:23:16;2.40;;;1.50;;
67715;SDS011;54508;43.238;25.306;2023-08-20T09:25:42;1.90;;;1.40;;
67715;SDS011;54508;43.238;25.306;2023-08-20T09:28:08;1.65;;;1.40;;
67715;SDS011;54508;43.238;25.306;2023-08-20T09:30:33;1.97;;;1.60;;
67715;SDS011;54508;43.238;25.306;2023-08-20T09:33:03;2.08;;;1.45;;
67715;SDS011;54508;43.238;25.306;2023-08-20T09:35:34;1.50;;;1.40;;
67715;SDS011;54508;43.238;25.306;2023-08-20T09:38:00;2.37;;;1.53;;
67715;SDS011;54508;43.238;25.306;2023-08-20T09:40:26;1.60;;;1.50;;
67715;SDS011;54508;43.238;25.306;2023-08-20T09:42:53;1.40;;;1.30;;
67715;SDS011;54508;43.238;25.306;2023-08-20T09:45:19;2.58;;;1.58;;
67715;SDS011;54508;43.238;25.306;2023-08-20T09:47:45;2.17;;;1.50;;
67715;SDS011;54508;43.238;25.306;2023-08-20T09:50:14;1.63;;;1.48;;
67715;SDS011;54508;43.238;25.306;2023-08-20T09:52:53;1.50;;;1.40;;
67715;SDS011;54508;43.238;25.306;2023-08-20T09:55:22;1.80;;;1.70;;
67715;SDS011;54508;43.238;25.306;2023-08-20T09:57:49;1.33;;;1.23;;
67715;SDS011;54508;43.238;25.306;2023-08-20T10:00:16;1.73;;;1.60;;
67715;SDS011;54508;43.238;25.306;2023-08-20T10:02:41;1.70;;;1.60;;
67715;SDS011;54508;43.238;25.306;2023-08-20T10:05:08;1.73;;;1.63;;
67715;SDS011;54508;43.238;25.306;2023-08-20T10:07:35;2.00;;;1.70;;
67715;SDS011;54508;43.238;25.306;2023-08-20T10:10:01;1.98;;;1.60;;
67715;SDS011;54508;43.238;25.306;2023-08-20T10:12:29;1.43;;;1.30;;
67715;SDS011;54508;43.238;25.306;2023-08-20T10:14:56;1.48;;;1.38;;
67715;SDS011;54508;43.238;25.306;2023-08-20T10:17:22;1.60;;;1.50;;
67715;SDS011;54508;43.238;25.306;2023-08-20T10:19:48;1.92;;;1.75;;
67715;SDS011;54508;43.238;25.306;2023-08-20T10:22:13;1.50;;;1.40;;
67715;SDS011;54508;43.238;25.306;2023-08-20T10:24:50;2.77;;;1.53;;
67715;SDS011;54508;43.238;25.306;2023-08-20T10:27:32;1.60;;;1.50;;
67715;SDS011;54508;43.238;25.306;2023-08-20T10:29:59;2.60;;;1.65;;
67715;SDS011;54508;43.238;25.306;2023-08-20T10:32:44;1.40;;;1.30;;
67715;SDS011;54508;43.238;25.306;2023-08-20T10:35:24;1.63;;;1.52;;
67715;SDS011;54508;43.238;25.306;2023-08-20T10:40:53;1.75;;;1.65;;
67715;SDS011;54508;43.238;25.306;2023-08-20T10:43:39;1.98;;;1.65;;
67715;SDS011;54508;43.238;25.306;2023-08-20T10:48:41;1.95;;;1.80;;
67715;SDS011;54508;43.238;25.306;2023-08-20T10:59:08;1.77;;;1.67;;
67715;SDS011;54508;43.238;25.306;2023-08-20T11:01:40;1.90;;;1.52;;
67715;SDS011;54508;43.238;25.306;2023-08-20T11:04:08;1.60;;;1.50;;
67715;SDS011;54508;43.238;25.306;2023-08-20T11:06:34;1.70;;;1.60;;
67715;SDS011;54508;43.238;25.306;2023-08-20T11:08:59;1.77;;;1.60;;
67715;SDS011;54508;43.238;25.306;2023-08-20T11:11:25;1.73;;;1.63;;
67715;SDS011;54508;43.238;25.306;2023-08-20T11:13:51;1.70;;;1.57;;
67715;SDS011;54508;43.238;25.306;2023-08-20T11:16:16;2.43;;;1.73;;
67715;SDS011;54508;43.238;25.306;2023-08-20T11:18:42;1.65;;;1.55;;
67715;SDS011;54508;43.238;25.306;2023-08-20T11:21:08;1.70;;;1.60;;
67715;SDS011;54508;43.238;25.306;2023-08-20T11:23:34;1.52;;;1.42;;
67715;SDS011;54508;43.238;25.306;2023-08-20T11:26:00;1.95;;;1.70;;
67715;SDS011;54508;43.238;25.306;2023-08-20T11:28:28;1.67;;;1.57;;
67715;SDS011;54508;43.238;25.306;2023-08-20T11:30:54;1.65;;;1.55;;
67715;SDS011;54508;43.238;25.306;2023-08-20T11:33:21;2.22;;;1.80;;
67715;SDS011;54508;43.238;25.306;2023-08-20T11:35:47;2.10;;;1.80;;
67715;SDS011;54508;43.238;25.306;2023-08-20T11:38:13;2.00;;;1.80;;
67715;SDS011;54508;43.238;25.306;2023-08-20T11:40:39;1.95;;;1.60;;
67715;SDS011;54508;43.238;25.306;2023-08-20T11:43:04;1.73;;;1.63;;
67715;SDS011;54508;43.238;25.306;2023-08-20T11:45:30;2.63;;;1.65;;
67715;SDS011;54508;43.238;25.306;2023-08-20T11:47:57;1.70;;;1.60;;
67715;SDS011;54508;43.238;25.306;2023-08-20T11:50:25;1.98;;;1.80;;
67715;SDS011;54508;43.238;25.306;2023-08-20T11:52:54;1.65;;;1.55;;
67715;SDS011;54508;43.238;25.306;2023-08-20T11:55:23;1.80;;;1.70;;
67715;SDS011;54508;43.238;25.306;2023-08-20T11:57:52;1.97;;;1.80;;
67715;SDS011;54508;43.238;25.306;2023-08-20T12:00:24;1.67;;;1.58;;
67715;SDS011;54508;43.238;25.306;2023-08-20T12:02:54;2.22;;;1.85;;
67715;SDS011;54508;43.238;25.306;2023-08-20T12:05:21;2.80;;;1.80;;
67715;SDS011;54508;43.238;25.306;2023-08-20T12:07:55;1.92;;;1.70;;
67715;SDS011;54508;43.238;25.306;2023-08-20T12:10:29;1.70;;;1.60;;
67715;SDS011;54508;43.238;25.306;2023-08-20T12:12:56;1.75;;;1.65;;
67715;SDS011;54508;43.238;25.306;2023-08-20T12:15:22;1.55;;;1.45;;
67715;SDS011;54508;43.238;25.306;2023-08-20T12:17:58;2.47;;;1.70;;
67715;SDS011;54508;43.238;25.306;2023-08-20T12:20:29;2.05;;;1.90;;
67715;SDS011;54508;43.238;25.306;2023-08-20T12:22:57;1.80;;;1.70;;
67715;SDS011;54508;43.238;25.306;2023-08-20T12:25:24;1.98;;;1.77;;
67715;SDS011;54508;43.238;25.306;2023-08-20T12:27:49;1.87;;;1.77;;
67715;SDS011;54508;43.238;25.306;2023-08-20T12:30:15;1.90;;;1.70;;
67715;SDS011;54508;43.238;25.306;2023-08-20T12:32:40;2.03;;;1.60;;
67715;SDS011;54508;43.238;25.306;2023-08-20T12:35:06;1.80;;;1.70;;
67715;SDS011;54508;43.238;25.306;2023-08-20T12:37:31;1.77;;;1.67;;
67715;SDS011;54508;43.238;25.306;2023-08-20T12:39:57;1.70;;;1.60;;
67715;SDS011;54508;43.238;25.306;2023-08-20T12:42:23;2.00;;;1.80;;
67715;SDS011;54508;43.238;25.306;2023-08-20T12:44:48;1.90;;;1.70;;
67715;SDS011;54508;43.238;25.306;2023-08-20T12:47:14;1.80;;;1.70;;
67715;SDS011;54508;43.238;25.306;2023-08-20T12:49:40;1.70;;;1.60;;
67715;SDS011;54508;43.238;25.306;2023-08-20T12:52:05;1.80;;;1.63;;
67715;SDS011;54508;43.238;25.306;2023-08-20T12:54:30;1.97;;;1.80;;
67715;SDS011;54508;43.238;25.306;2023-08-20T12:56:56;1.70;;;1.60;;
67715;SDS011;54508;43.238;25.306;2023-08-20T12:59:21;1.93;;;1.80;;
67715;SDS011;54508;43.238;25.306;2023-08-20T13:01:47;2.10;;;1.90;;
67715;SDS011;54508;43.238;25.306;2023-08-20T13:04:12;1.73;;;1.63;;
67715;SDS011;54508;43.238;25.306;2023-08-20T13:06:38;1.73;;;1.63;;
67715;SDS011;54508;43.238;25.306;2023-08-20T13:09:04;1.77;;;1.67;;
67715;SDS011;54508;43.238;25.306;2023-08-20T13:11:31;2.20;;;2.00;;
67715;SDS011;54508;43.238;25.306;2023-08-20T13:13:57;2.28;;;1.98;;
67715;SDS011;54508;43.238;25.306;2023-08-20T13:16:23;1.90;;;1.80;;
67715;SDS011;54508;43.238;25.306;2023-08-20T13:18:48;1.90;;;1.80;;
67715;SDS011;54508;43.238;25.306;2023-08-20T13:21:14;1.70;;;1.60;;
67715;SDS011;54508;43.238;25.306;2023-08-20T13:23:40;2.10;;;1.67;;
67715;SDS011;54508;43.238;25.306;2023-08-20T13:26:06;2.05;;;1.70;;
67715;SDS011;54508;43.238;25.306;2023-08-20T13:28:31;2.25;;;1.98;;
67715;SDS011;54508;43.238;25.306;2023-08-20T13:30:57;2.60;;;1.70;;
67715;SDS011;54508;43.238;25.306;2023-08-20T13:33:22;1.70;;;1.60;;
67715;SDS011;54508;43.238;25.306;2023-08-20T13:35:48;2.10;;;1.90;;
67715;SDS011;54508;43.238;25.306;2023-08-20T13:38:13;1.90;;;1.80;;
67715;SDS011;54508;43.238;25.306;2023-08-20T13:40:39;1.60;;;1.50;;
67715;SDS011;54508;43.238;25.306;2023-08-20T13:43:04;2.10;;;1.90;;
67715;SDS011;54508;43.238;25.306;2023-08-20T13:45:31;2.17;;;1.98;;
67715;SDS011;54508;43.238;25.306;2023-08-20T13:47:57;2.70;;;1.70;;
67715;SDS011;54508;43.238;25.306;2023-08-20T13:50:22;2.30;;;2.10;;
67715;SDS011;54508;43.238;25.306;2023-08-20T13:52:47;2.00;;;1.80;;
67715;SDS011;54508;43.238;25.306;2023-08-20T13:55:13;2.10;;;1.90;;
67715;SDS011;54508;43.238;25.306;2023-08-20T13:57:38;1.73;;;1.63;;
67715;SDS011;54508;43.238;25.306;2023-08-20T14:00:04;1.90;;;1.70;;
67715;SDS011;54508;43.238;25.306;2023-08-20T14:02:37;1.95;;;1.85;;
67715;SDS011;54508;43.238;25.306;2023-08-20T14:05:03;2.22;;;1.90;;
67715;SDS011;54508;43.238;25.306;2023-08-20T14:07:30;1.90;;;1.70;;
67715;SDS011;54508;43.238;25.306;2023-08-20T14:09:55;1.67;;;1.57;;
67715;SDS011;54508;43.238;25.306;2023-08-20T14:12:21;1.97;;;1.87;;
67715;SDS011;54508;43.238;25.306;2023-08-20T14:14:46;2.17;;;1.98;;
67715;SDS011;54508;43.238;25.306;2023-08-20T14:17:11;2.37;;;1.90;;
67715;SDS011;54508;43.238;25.306;2023-08-20T14:19:37;1.70;;;1.60;;
67715;SDS011;54508;43.238;25.306;2023-08-20T14:22:02;2.03;;;1.83;;
67715;SDS011;54508;43.238;25.306;2023-08-20T14:24:28;2.33;;;2.13;;
67715;SDS011;54508;43.238;25.306;2023-08-20T14:26:53;2.13;;;1.90;;
67715;SDS011;54508;43.238;25.306;2023-08-20T14:29:19;1.70;;;1.60;;
67715;SDS011;54508;43.238;25.306;2023-08-20T14:31:44;1.80;;;1.70;;
67715;SDS011;54508;43.238;25.306;2023-08-20T14:34:10;1.77;;;1.67;;
67715;SDS011;54508;43.238;25.306;2023-08-20T14:36:35;1.80;;;1.70;;
67715;SDS011;54508;43.238;25.306;2023-08-20T14:39:01;2.60;;;1.80;;
67715;SDS011;54508;43.238;25.306;2023-08-20T14:41:26;1.77;;;1.67;;
67715;SDS011;54508;43.238;25.306;2023-08-20T14:43:52;1.88;;;1.77;;
67715;SDS011;54508;43.238;25.306;2023-08-20T14:46:17;3.07;;;1.87;;